createdAt,value
2023-01-22T00:03:46.529Z,97860.13
2023-01-22T00:07:51.078Z,97848.84
2023-01-22T00:11:53.453Z,97861.00
2023-01-22T00:15:57.195Z,97856.00
2023-01-22T00:19:59.206Z,97861.41
2023-01-22T00:24:01.689Z,97862.84
2023-01-22T00:28:03.748Z,97863.22
2023-01-22T00:32:06.100Z,97861.19
2023-01-22T00:36:09.679Z,97859.81
2023-01-22T00:40:12.250Z,97850.03
2023-01-22T00:44:14.120Z,97859.81
2023-01-22T00:48:16.144Z,97855.66
2023-01-22T00:52:18.162Z,97866.28
2023-01-22T00:56:20.085Z,97869.53
2023-01-22T01:00:22.650Z,97856.00
2023-01-22T01:04:25.074Z,97858.31
2023-01-22T01:08:28.287Z,97868.09
2023-01-22T01:12:31.213Z,97867.69
2023-01-22T01:16:33.390Z,97882.16
2023-01-22T01:20:35.253Z,97880.59
2023-01-22T01:24:37.246Z,97889.59
2023-01-22T01:28:39.923Z,97888.03
2023-01-22T01:32:41.899Z,97894.94
2023-01-22T01:36:49.273Z,97895.88
2023-01-22T01:40:51.815Z,97889.72
2023-01-22T01:45:27.323Z,97899.78
2023-01-22T01:49:35.386Z,97902.63
2023-01-22T01:53:37.922Z,97902.50
2023-01-22T01:57:41.954Z,97904.81
2023-01-22T02:01:45.908Z,97910.84
2023-01-22T02:05:47.845Z,97904.66
2023-01-22T02:09:50.075Z,97907.53
2023-01-22T02:14:03.088Z,97904.78
2023-01-22T02:18:05.427Z,97890.16
2023-01-22T02:22:15.511Z,97889.91
2023-01-22T02:26:18.330Z,97892.34
2023-01-22T02:30:21.360Z,97887.44
2023-01-22T02:34:25.091Z,97886.72
2023-01-22T02:38:28.903Z,97887.06
2023-01-22T02:42:30.956Z,97891.28
2023-01-22T02:46:33.489Z,97885.09
2023-01-22T02:50:35.779Z,97882.72
2023-01-22T02:54:39.071Z,97878.00
2023-01-22T02:58:41.009Z,97882.06
2023-01-22T03:02:42.964Z,97870.69
2023-01-22T03:06:46.066Z,97859.97
2023-01-22T03:10:52.969Z,97861.66
2023-01-22T03:15:15.566Z,97865.44
2023-01-22T03:19:36.716Z,97864.41
2023-01-22T03:23:43.667Z,97868.19
2023-01-22T03:28:05.050Z,97869.78
2023-01-22T03:32:10.320Z,97874.28
2023-01-22T03:36:14.421Z,97880.44
2023-01-22T03:40:21.529Z,97881.47
2023-01-22T03:44:23.514Z,97886.97
2023-01-22T03:48:25.678Z,97892.09
2023-01-22T03:52:27.703Z,97904.53
2023-01-22T03:56:29.851Z,97900.09
2023-01-22T04:00:36.668Z,97896.31
2023-01-22T04:04:41.546Z,97895.75
2023-01-22T04:08:45.031Z,97895.75
2023-01-22T04:12:47.217Z,97899.88
2023-01-22T04:16:52.211Z,97899.19
2023-01-22T04:21:13.126Z,97892.09
2023-01-22T04:25:19.246Z,97887.41
2023-01-22T04:29:21.490Z,97886.16
2023-01-22T04:33:24.021Z,97879.84
2023-01-22T04:38:01.245Z,97881.34
2023-01-22T04:42:03.322Z,97887.06
2023-01-22T04:46:05.580Z,97894.97
2023-01-22T04:50:13.314Z,97889.59
2023-01-22T04:54:15.408Z,97887.63
2023-01-22T04:58:17.395Z,97891.63
2023-01-22T05:02:19.725Z,97887.31
2023-01-22T05:06:22.134Z,97901.00
2023-01-22T05:10:24.495Z,97885.09
2023-01-22T05:14:26.621Z,97890.28
2023-01-22T05:18:29.191Z,97896.19
2023-01-22T05:22:31.144Z,97900.25
2023-01-22T05:26:34.742Z,97904.34
2023-01-22T05:30:48.025Z,97917.16
2023-01-22T05:35:15.125Z,97908.69
2023-01-22T05:39:21.365Z,97924.56
2023-01-22T05:43:25.864Z,97919.88
2023-01-22T05:47:34.061Z,97925.28
2023-01-22T05:51:54.055Z,97928.53
2023-01-22T05:55:59.757Z,97938.81
2023-01-22T06:00:02.223Z,97956.91
2023-01-22T06:04:05.525Z,97958.75
2023-01-22T06:08:07.683Z,97962.13
2023-01-22T06:12:21.100Z,97960.88
2023-01-22T06:16:23.112Z,97976.84
2023-01-22T06:20:28.042Z,97983.41
2023-01-22T06:24:30.063Z,97991.84
2023-01-22T06:28:33.536Z,98002.78
2023-01-22T06:32:36.709Z,98006.28
2023-01-22T06:36:41.431Z,98017.22
2023-01-22T06:40:50.775Z,98018.84
2023-01-22T06:44:52.968Z,98028.94
2023-01-22T06:48:59.232Z,98044.63
2023-01-22T06:53:01.632Z,98045.69
2023-01-22T06:57:05.611Z,98054.19
2023-01-22T07:01:11.352Z,98060.03
2023-01-22T07:05:13.262Z,98067.69
2023-01-22T07:09:15.168Z,98072.28
2023-01-22T07:13:17.935Z,98085.03
2023-01-22T07:17:19.885Z,98087.97
2023-01-22T07:21:21.879Z,98097.69
2023-01-22T07:25:23.887Z,98113.09
2023-01-22T07:29:26.017Z,98115.91
2023-01-22T07:33:28.091Z,98123.94
2023-01-22T07:37:30.263Z,98123.69
2023-01-22T07:41:32.871Z,98137.34
2023-01-22T07:45:35.588Z,98134.75
2023-01-22T07:49:37.502Z,98136.16
2023-01-22T07:53:40.116Z,98141.19
2023-01-22T07:57:42.132Z,98150.69
2023-01-22T08:01:44.097Z,98157.09
2023-01-22T08:05:46.041Z,98161.22
2023-01-22T08:09:47.943Z,98161.69
2023-01-22T08:13:50.077Z,98160.22
2023-01-22T08:17:52.070Z,98168.81
2023-01-22T08:21:54.150Z,98165.69
2023-01-22T08:25:59.968Z,98178.78
2023-01-22T08:30:04.372Z,98186.31
2023-01-22T08:34:06.819Z,98189.16
2023-01-22T08:38:09.088Z,98190.53
2023-01-22T08:42:10.991Z,98187.09
2023-01-22T08:46:13.103Z,98203.75
2023-01-22T08:50:15.402Z,98208.91
2023-01-22T08:54:18.007Z,98211.75
2023-01-22T08:58:22.201Z,98217.34
2023-01-22T09:02:24.281Z,98218.63
2023-01-22T09:06:27.532Z,98209.63
2023-01-22T09:10:29.914Z,98207.53
2023-01-22T09:14:32.176Z,98216.31
2023-01-22T09:18:34.487Z,98225.59
2023-01-22T09:22:36.423Z,98225.91
2023-01-22T09:26:38.287Z,98231.56
2023-01-22T09:30:41.881Z,98240.84
2023-01-22T09:34:44.090Z,98238.91
2023-01-22T09:38:46.291Z,98246.00
2023-01-22T09:42:49.265Z,98250.72
2023-01-22T09:47:04.460Z,98253.34
2023-01-22T09:51:06.610Z,98256.47
2023-01-22T09:55:13.460Z,98257.13
2023-01-22T09:59:17.436Z,98253.00
2023-01-22T10:03:25.466Z,98247.78
2023-01-22T10:07:47.867Z,98250.72
2023-01-22T10:11:52.047Z,98245.22
2023-01-22T10:15:55.359Z,98252.34
2023-01-22T10:20:03.243Z,98251.81
2023-01-22T10:24:05.504Z,98259.47
2023-01-22T10:28:07.833Z,98253.88
2023-01-22T10:32:18.942Z,98266.13
2023-01-22T10:36:21.835Z,98250.38
2023-01-22T10:40:30.987Z,98243.34
2023-01-22T10:44:33.198Z,98229.16
2023-01-22T10:48:35.336Z,98230.78
2023-01-22T10:52:41.271Z,98235.28
2023-01-22T10:56:43.676Z,98238.19
2023-01-22T11:00:55.484Z,98223.91
2023-01-22T11:05:06.708Z,98236.72
2023-01-22T11:09:14.450Z,98230.16
2023-01-22T11:13:17.018Z,98225.44
2023-01-22T11:17:25.235Z,98230.13
2023-01-22T11:21:33.994Z,98226.50
2023-01-22T11:25:43.864Z,98227.47
2023-01-22T11:30:01.018Z,98218.03
2023-01-22T11:34:26.276Z,98215.09
2023-01-22T11:38:47.675Z,98217.81
2023-01-22T11:43:13.089Z,98222.00
2023-01-22T11:47:21.394Z,98221.88
2023-01-22T11:51:26.425Z,98213.03
2023-01-22T11:55:31.402Z,98210.44
2023-01-22T11:59:52.042Z,98211.28
2023-01-22T12:03:53.962Z,98204.69
2023-01-22T12:07:59.276Z,98203.59
2023-01-22T12:12:22.437Z,98194.94
2023-01-22T12:16:38.401Z,98193.94
2023-01-22T12:20:40.377Z,98187.50
2023-01-22T12:25:05.747Z,98187.28
2023-01-22T12:29:08.156Z,98187.28
2023-01-22T12:33:12.657Z,98186.94
2023-01-22T12:37:16.364Z,98201.50
2023-01-22T12:41:18.228Z,98196.53
2023-01-22T12:45:20.358Z,98201.56
2023-01-22T12:49:22.399Z,98209.06
2023-01-22T12:53:28.750Z,98221.84
2023-01-22T12:57:40.899Z,98229.25
2023-01-22T13:01:43.622Z,98233.66
2023-01-22T13:05:47.321Z,98234.53
2023-01-22T13:10:00.362Z,98236.16
2023-01-22T13:14:16.918Z,98225.75
2023-01-22T13:18:21.053Z,98222.28
2023-01-22T13:22:25.248Z,98216.59
2023-01-22T13:26:28.553Z,98212.47
2023-01-22T13:30:33.629Z,98207.03
2023-01-22T13:34:35.767Z,98205.75
2023-01-22T13:38:37.918Z,98212.72
2023-01-22T13:42:43.163Z,98215.13
2023-01-22T13:46:45.816Z,98218.75
2023-01-22T13:50:52.111Z,98226.91
2023-01-22T13:55:12.083Z,98225.50
2023-01-22T13:59:14.079Z,98230.50
2023-01-22T14:03:21.827Z,98221.34
2023-01-22T14:07:34.658Z,98219.63
2023-01-22T14:11:37.398Z,98213.38
2023-01-22T14:15:40.559Z,98222.28
2023-01-22T14:19:42.423Z,98223.50
2023-01-22T14:23:44.341Z,98238.38
2023-01-22T14:27:50.150Z,98239.88
2023-01-22T14:31:52.157Z,98250.16
2023-01-22T14:35:54.598Z,98234.81
2023-01-22T14:39:56.491Z,98241.78
2023-01-22T14:43:58.396Z,98249.78
2023-01-22T14:48:01.099Z,98252.84
2023-01-22T14:52:03.307Z,98270.88
2023-01-22T14:56:05.469Z,98260.00
2023-01-22T15:00:07.924Z,98251.91
2023-01-22T15:04:09.786Z,98260.28
2023-01-22T15:08:12.113Z,98255.22
2023-01-22T15:12:14.057Z,98266.34
2023-01-22T15:16:15.987Z,98263.06
2023-01-22T15:20:18.796Z,98273.59
2023-01-22T15:24:21.063Z,98258.47
2023-01-22T15:28:23.012Z,98263.53
2023-01-22T15:32:25.103Z,98271.13
2023-01-22T15:36:27.104Z,98279.59
2023-01-22T15:40:29.459Z,98280.13
2023-01-22T15:44:31.448Z,98285.75
2023-01-22T15:48:33.528Z,98283.94
2023-01-22T15:52:35.453Z,98284.03
2023-01-22T15:56:38.061Z,98287.78
2023-01-22T16:00:40.048Z,98278.50
2023-01-22T16:04:41.985Z,98275.94
2023-01-22T16:08:44.797Z,98284.59
2023-01-22T16:12:46.749Z,98285.28
2023-01-22T16:16:48.900Z,98286.84
2023-01-22T16:20:50.778Z,98287.84
2023-01-22T16:24:56.135Z,98290.16
2023-01-22T16:28:59.265Z,98283.34
2023-01-22T16:33:01.823Z,98280.94
2023-01-22T16:37:04.788Z,98295.56
2023-01-22T16:41:06.620Z,98304.13
2023-01-22T16:45:09.563Z,98313.25
2023-01-22T16:49:19.362Z,98315.44
2023-01-22T16:53:21.265Z,98317.84
2023-01-22T16:57:23.233Z,98336.78
2023-01-22T17:01:25.668Z,98334.59
2023-01-22T17:05:27.592Z,98332.91
2023-01-22T17:09:31.507Z,98337.34
2023-01-22T17:13:33.456Z,98324.03
2023-01-22T17:17:35.504Z,98337.69
2023-01-22T17:21:37.395Z,98337.41
2023-01-22T17:25:40.605Z,98347.13
2023-01-22T17:29:42.518Z,98346.09
2023-01-22T17:33:44.750Z,98346.81
2023-01-22T17:37:47.872Z,98346.38
2023-01-22T17:41:49.925Z,98347.63
2023-01-22T17:45:54.156Z,98335.38
2023-01-22T17:49:56.441Z,98342.25
2023-01-22T17:53:59.402Z,98347.78
2023-01-22T17:58:01.324Z,98345.59
2023-01-22T18:02:03.638Z,98342.91
2023-01-22T18:06:05.665Z,98351.00
2023-01-22T18:10:07.964Z,98351.13
2023-01-22T18:14:15.936Z,98350.56
2023-01-22T18:18:18.318Z,98349.75
2023-01-22T18:22:20.879Z,98349.34
2023-01-22T18:26:23.832Z,98353.25
2023-01-22T18:30:26.869Z,98346.38
2023-01-22T18:34:28.821Z,98348.44
2023-01-22T18:38:31.010Z,98354.69
2023-01-22T18:42:32.886Z,98354.56
2023-01-22T18:46:36.976Z,98348.03
2023-01-22T18:50:39.791Z,98346.44
2023-01-22T18:54:42.801Z,98347.78
2023-01-22T18:58:46.228Z,98342.50
2023-01-22T19:02:55.441Z,98345.16
2023-01-22T19:06:57.842Z,98343.31
2023-01-22T19:11:05.303Z,98346.06
2023-01-22T19:15:07.681Z,98346.63
2023-01-22T19:19:13.269Z,98348.53
2023-01-22T19:23:15.250Z,98354.38
2023-01-22T19:27:17.744Z,98357.13
2023-01-22T19:31:21.539Z,98351.38
2023-01-22T19:35:24.516Z,98356.28
2023-01-22T19:39:26.633Z,98350.88
2023-01-22T19:43:28.633Z,98352.25
2023-01-22T19:47:30.577Z,98347.31
2023-01-22T19:51:32.754Z,98333.19
2023-01-22T19:55:38.561Z,98341.53
2023-01-22T19:59:42.938Z,98339.41
2023-01-22T20:03:45.399Z,98350.00
2023-01-22T20:07:47.763Z,98358.47
2023-01-22T20:11:53.987Z,98363.75
2023-01-22T20:15:56.133Z,98355.19
2023-01-22T20:19:59.051Z,98372.59
2023-01-22T20:24:01.039Z,98370.09
2023-01-22T20:28:03.226Z,98359.09
2023-01-22T20:32:05.475Z,98361.44
2023-01-22T20:36:10.812Z,98366.78
2023-01-22T20:40:13.115Z,98384.16
2023-01-22T20:44:15.247Z,98377.66
2023-01-22T20:48:17.369Z,98367.47
2023-01-22T20:52:20.183Z,98380.22
2023-01-22T20:56:29.046Z,98384.22
2023-01-22T21:00:32.040Z,98389.22
2023-01-22T21:04:34.114Z,98377.69
2023-01-22T21:08:37.467Z,98388.00
2023-01-22T21:12:46.701Z,98373.34
2023-01-22T21:16:50.119Z,98370.13
2023-01-22T21:20:52.227Z,98357.78
2023-01-22T21:24:56.496Z,98361.63
2023-01-22T21:29:00.470Z,98342.41
2023-01-22T21:33:02.514Z,98339.53
2023-01-22T21:37:04.499Z,98341.25
2023-01-22T21:41:08.028Z,98335.19
2023-01-22T21:45:28.986Z,98346.56
2023-01-22T21:49:31.506Z,98341.97
2023-01-22T21:53:34.093Z,98345.25
2023-01-22T21:57:36.163Z,98342.03
2023-01-22T22:01:38.404Z,98322.88
2023-01-22T22:05:40.420Z,98326.81
2023-01-22T22:09:44.524Z,98324.16
2023-01-22T22:13:46.701Z,98327.03
2023-01-22T22:17:49.380Z,98342.97
2023-01-22T22:21:51.841Z,98330.69
2023-01-22T22:25:54.050Z,98330.38
2023-01-22T22:29:56.210Z,98329.22
2023-01-22T22:33:59.751Z,98322.63
2023-01-22T22:38:01.810Z,98315.19
2023-01-22T22:42:03.984Z,98295.34
2023-01-22T22:46:07.482Z,98305.78
2023-01-22T22:50:10.516Z,98298.31
2023-01-22T22:54:15.587Z,98296.97
2023-01-22T22:58:17.600Z,98287.78
2023-01-22T23:02:19.688Z,98290.88
2023-01-22T23:06:30.484Z,98290.22
2023-01-22T23:10:44.569Z,98299.19
2023-01-22T23:14:46.657Z,98295.03
2023-01-22T23:18:50.090Z,98287.13
2023-01-22T23:22:56.994Z,98292.75
2023-01-22T23:26:59.146Z,98269.16
2023-01-22T23:31:05.532Z,98271.91
2023-01-22T23:35:07.661Z,98259.75
2023-01-22T23:39:10.347Z,98272.81
2023-01-22T23:43:12.367Z,98274.41
2023-01-22T23:47:14.563Z,98273.38
2023-01-22T23:51:17.267Z,98276.69
2023-01-22T23:55:19.699Z,98270.63
2023-01-22T23:59:24.013Z,98261.59
